Time;durP1;ratioP1;P1;durP2;ratioP2;P2;SDS_P1;SDS_P2;PMS_P1;PMS_P2;Temp;Humidity;BMP_temperature;BMP_pressure;BME280_temperature;BME280_humidity;BME280_pressure;Samples;Min_cycle;Max_cycle;Signal;HPM_P1;HPM_P2
2024/01/01 00:00:25;;;;;;;20.90;7.57;;;9.10;99.90;;;;;;5094467;28;20682;-77
2024/01/01 00:02:51;;;;;;;18.60;8.20;;;9.10;99.90;;;;;;5095781;28;20229;-77
2024/01/01 00:05:16;;;;;;;14.90;6.53;;;9.10;99.90;;;;;;5093953;28;20174;-78
2024/01/01 00:07:42;;;;;;;15.43;5.70;;;9.10;99.90;;;;;;5094269;28;20194;-75
2024/01/01 00:10:08;;;;;;;23.10;7.83;;;9.10;99.90;;;;;;5095299;28;20182;-76
2024/01/01 00:12:33;;;;;;;14.80;5.50;;;9.20;99.90;;;;;;5093745;28;20206;-76
2024/01/01 00:14:59;;;;;;;12.53;5.03;;;9.10;99.90;;;;;;5095325;28;20182;-77
2024/01/01 00:17:25;;;;;;;13.10;6.50;;;9.10;99.90;;;;;;5077414;28;20191;-77
2024/01/01 00:19:51;;;;;;;13.93;5.40;;;9.10;99.90;;;;;;5075032;28;20309;-77
2024/01/01 00:22:16;;;;;;;13.77;5.57;;;9.10;99.90;;;;;;5075176;28;20175;-76
2024/01/01 00:24:42;;;;;;;17.23;5.83;;;9.10;99.90;;;;;;5073022;28;20179;-77
2024/01/01 00:27:08;;;;;;;17.90;6.37;;;9.10;99.90;;;;;;5089216;28;20235;-77
2024/01/01 00:29:33;;;;;;;20.47;7.43;;;9.10;99.90;;;;;;5095332;28;20182;-77
2024/01/01 00:31:59;;;;;;;16.03;6.73;;;9.10;99.90;;;;;;5095122;28;20191;-77
2024/01/01 00:34:24;;;;;;;17.73;7.07;;;9.10;99.90;;;;;;5093921;28;20232;-76
2024/01/01 00:36:50;;;;;;;16.30;6.97;;;9.00;99.90;;;;;;5090179;28;20175;-76
2024/01/01 00:39:15;;;;;;;16.73;6.90;;;9.00;99.90;;;;;;5073442;28;20577;-77
2024/01/01 00:41:41;;;;;;;16.17;6.13;;;9.00;99.90;;;;;;5074802;28;20242;-77
2024/01/01 00:44:07;;;;;;;15.57;6.47;;;9.00;99.90;;;;;;5074745;28;20228;-77
2024/01/01 00:46:32;;;;;;;22.27;7.93;;;9.00;99.90;;;;;;5079154;28;20706;-76
2024/01/01 00:48:58;;;;;;;16.23;6.17;;;9.00;99.90;;;;;;5093629;28;20261;-76
2024/01/01 00:51:23;;;;;;;14.80;5.73;;;9.00;99.90;;;;;;5093587;28;20181;-77
2024/01/01 00:53:49;;;;;;;10.00;4.73;;;9.00;99.90;;;;;;5095026;28;20194;-77
2024/01/01 00:56:15;;;;;;;10.63;4.63;;;9.00;99.90;;;;;;5092794;28;20174;-76
2024/01/01 00:58:40;;;;;;;15.17;5.90;;;9.00;99.90;;;;;;5093526;28;20193;-77
2024/01/01 01:01:07;;;;;;;10.97;4.37;;;8.90;99.90;;;;;;5095202;28;20174;-76
2024/01/01 01:03:34;;;;;;;13.17;4.83;;;9.00;99.90;;;;;;5093136;28;20196;-77
2024/01/01 01:06:00;;;;;;;14.07;4.77;;;8.90;99.90;;;;;;5093947;28;20634;-77
2024/01/01 01:08:25;;;;;;;13.47;4.57;;;8.90;99.90;;;;;;5093489;28;20178;-77
2024/01/01 01:10:51;;;;;;;12.47;4.13;;;8.90;99.90;;;;;;5094704;28;20189;-77
2024/01/01 01:13:17;;;;;;;15.30;3.87;;;8.90;99.90;;;;;;5093084;28;20567;-76
2024/01/01 01:15:42;;;;;;;9.73;4.27;;;8.90;99.90;;;;;;5093022;28;20713;-77
2024/01/01 01:18:08;;;;;;;12.03;3.30;;;8.90;99.90;;;;;;5094463;28;20170;-76
2024/01/01 01:20:33;;;;;;;11.40;3.50;;;8.90;99.90;;;;;;5094413;28;20194;-77
2024/01/01 01:22:59;;;;;;;9.40;3.30;;;8.90;99.90;;;;;;5094490;28;20193;-77
2024/01/01 01:25:24;;;;;;;10.60;3.30;;;8.90;99.90;;;;;;5094445;28;20173;-77
2024/01/01 01:27:50;;;;;;;14.53;3.30;;;8.90;99.90;;;;;;5093447;28;20178;-77
2024/01/01 01:30:16;;;;;;;10.03;3.00;;;8.90;99.90;;;;;;5094661;28;20581;-77
2024/01/01 01:32:42;;;;;;;16.17;3.93;;;9.00;99.90;;;;;;5093184;28;20236;-77
2024/01/01 01:35:07;;;;;;;10.40;2.80;;;9.00;99.90;;;;;;5094374;28;20261;-77
2024/01/01 01:37:33;;;;;;;11.87;2.90;;;9.10;99.90;;;;;;5092636;28;20182;-77
2024/01/01 01:39:59;;;;;;;10.93;3.10;;;9.10;99.90;;;;;;5093507;28;20194;-77
2024/01/01 01:42:24;;;;;;;12.17;2.53;;;9.10;99.90;;;;;;5093413;28;20265;-77
2024/01/01 01:44:50;;;;;;;8.70;2.60;;;9.00;99.90;;;;;;5095517;28;20170;-77
2024/01/01 01:47:16;;;;;;;7.93;2.03;;;9.00;99.90;;;;;;5095356;28;20305;-77
2024/01/01 01:49:42;;;;;;;10.30;2.43;;;9.00;99.90;;;;;;5093892;28;20626;-75
2024/01/01 01:52:09;;;;;;;7.97;2.07;;;9.00;99.90;;;;;;5093791;28;20183;-77
2024/01/01 01:54:36;;;;;;;6.80;2.00;;;8.90;99.90;;;;;;5092969;28;20185;-78
2024/01/01 01:57:03;;;;;;;12.23;2.67;;;9.00;99.90;;;;;;5094315;28;20194;-77
2024/01/01 01:59:29;;;;;;;10.17;2.57;;;8.90;99.90;;;;;;5094442;28;20205;-77
2024/01/01 02:01:56;;;;;;;12.80;2.30;;;8.90;99.90;;;;;;5093103;28;20179;-78
2024/01/01 02:04:23;;;;;;;9.97;2.53;;;8.90;99.90;;;;;;5093042;28;20201;-77
2024/01/01 02:06:49;;;;;;;14.47;2.70;;;8.90;99.90;;;;;;5094095;28;20253;-77
2024/01/01 02:09:14;;;;;;;14.07;2.70;;;8.80;99.90;;;;;;5094058;28;20263;-78
2024/01/01 02:11:40;;;;;;;9.30;2.67;;;8.70;99.90;;;;;;5094334;28;20170;-77
2024/01/01 02:14:14;;;;;;;9.90;2.03;;;8.60;99.90;;;;;;5094083;28;20201;-77
2024/01/01 02:16:40;;;;;;;9.50;2.73;;;8.50;99.90;;;;;;5093858;28;20184;-77
2024/01/01 02:19:21;;;;;;;11.03;2.33;;;8.30;99.90;;;;;;5093526;28;20198;-77
2024/01/01 02:21:49;;;;;;;7.07;2.40;;;8.30;99.90;;;;;;5092729;28;20178;-77
2024/01/01 02:24:18;;;;;;;6.93;2.30;;;8.10;99.90;;;;;;5092177;28;20201;-77
2024/01/01 02:26:44;;;;;;;5.60;1.87;;;8.00;99.90;;;;;;5093385;28;20194;-77
2024/01/01 02:29:10;;;;;;;12.27;3.80;;;7.90;99.90;;;;;;5093411;28;20521;-77
2024/01/01 02:31:36;;;;;;;7.73;2.83;;;7.80;99.90;;;;;;5092994;28;20174;-77
2024/01/01 02:34:02;;;;;;;10.23;2.03;;;7.70;99.90;;;;;;5091450;28;20221;-77
2024/01/01 02:36:28;;;;;;;9.97;2.40;;;7.70;99.90;;;;;;5092247;28;20178;-78
2024/01/01 02:38:54;;;;;;;9.30;2.20;;;7.60;99.90;;;;;;5093066;28;20217;-77
2024/01/01 02:41:20;;;;;;;7.30;2.17;;;7.60;99.90;;;;;;5090933;28;20182;-76
2024/01/01 02:43:45;;;;;;;7.97;2.13;;;7.50;99.90;;;;;;5092397;28;20190;-76
2024/01/01 02:46:11;;;;;;;9.53;2.43;;;7.50;99.90;;;;;;5091403;28;20636;-78
2024/01/01 02:48:37;;;;;;;5.63;1.77;;;7.50;99.90;;;;;;5092598;28;20224;-77
2024/01/01 02:51:03;;;;;;;7.40;2.37;;;7.50;99.90;;;;;;5093326;28;20679;-77
2024/01/01 02:53:29;;;;;;;9.03;2.20;;;7.50;99.90;;;;;;5091829;28;20293;-77
2024/01/01 02:55:54;;;;;;;10.07;2.30;;;7.50;99.90;;;;;;5093105;28;20679;-77
2024/01/01 02:58:20;;;;;;;12.67;2.33;;;7.40;99.90;;;;;;5093013;28;20178;-77
2024/01/01 03:00:47;;;;;;;7.93;2.53;;;7.40;99.90;;;;;;5091627;28;20253;-77
2024/01/01 03:03:14;;;;;;;13.53;2.50;;;7.50;99.90;;;;;;5093230;28;20232;-78
2024/01/01 03:05:40;;;;;;;11.43;2.30;;;7.40;99.90;;;;;;5091913;28;20178;-77
2024/01/01 03:08:07;;;;;;;7.40;2.10;;;7.40;99.90;;;;;;5093045;28;20174;-77
2024/01/01 03:10:32;;;;;;;9.47;2.33;;;7.40;99.90;;;;;;5093193;28;20291;-77
2024/01/01 03:12:58;;;;;;;11.63;2.30;;;7.40;99.90;;;;;;5092709;28;20683;-77
2024/01/01 03:15:23;;;;;;;10.53;3.30;;;7.40;99.90;;;;;;5091301;28;20573;-76
2024/01/01 03:17:49;;;;;;;11.90;2.40;;;7.40;99.90;;;;;;5091536;28;20204;-77
2024/01/01 03:20:15;;;;;;;12.93;2.47;;;7.40;99.90;;;;;;5093017;28;20194;-78
2024/01/01 03:22:42;;;;;;;14.67;2.83;;;7.40;99.90;;;;;;5092688;28;20331;-76
2024/01/01 03:25:09;;;;;;;13.07;2.43;;;7.40;99.90;;;;;;5093029;28;20584;-77
2024/01/01 03:27:35;;;;;;;12.40;2.50;;;7.40;99.90;;;;;;5093018;28;20167;-77
2024/01/01 03:30:01;;;;;;;9.37;2.30;;;7.40;99.90;;;;;;5091257;28;20181;-77
2024/01/01 03:32:26;;;;;;;14.40;2.73;;;7.40;99.90;;;;;;5091103;28;20198;-77
2024/01/01 03:34:52;;;;;;;17.50;2.97;;;7.40;99.90;;;;;;5091098;28;20187;-77
2024/01/01 03:37:17;;;;;;;11.10;2.83;;;7.40;99.90;;;;;;5092636;28;20175;-76
2024/01/01 03:39:43;;;;;;;12.00;2.37;;;7.40;99.90;;;;;;5092734;28;20688;-77
2024/01/01 03:42:08;;;;;;;11.67;2.47;;;7.40;99.90;;;;;;5092899;28;20174;-77
2024/01/01 03:44:34;;;;;;;17.80;2.87;;;7.40;99.90;;;;;;5091429;28;20277;-77
2024/01/01 03:46:59;;;;;;;12.43;3.00;;;7.40;99.90;;;;;;5092626;28;20174;-77
2024/01/01 03:49:25;;;;;;;15.87;2.93;;;7.40;99.90;;;;;;5091972;28;20189;-77
2024/01/01 03:51:50;;;;;;;17.07;2.80;;;7.40;99.90;;;;;;5093385;28;20258;-78
2024/01/01 03:54:16;;;;;;;12.97;3.00;;;7.40;99.90;;;;;;5091960;28;20225;-78
2024/01/01 03:56:41;;;;;;;18.10;2.97;;;7.40;99.90;;;;;;5094170;28;20181;-78
2024/01/01 03:59:07;;;;;;;16.17;2.73;;;7.40;99.90;;;;;;5092174;28;20879;-78
2024/01/01 04:01:33;;;;;;;12.53;3.40;;;7.50;99.90;;;;;;5097829;28;20166;-78
2024/01/01 04:04:03;;;;;;;15.03;2.67;;;7.50;99.90;;;;;;5097578;28;20193;-78
2024/01/01 04:06:28;;;;;;;12.63;2.63;;;7.50;99.90;;;;;;5095364;28;20174;-78
2024/01/01 04:08:54;;;;;;;13.07;2.77;;;7.50;99.90;;;;;;5096412;28;20672;-77
2024/01/01 04:11:20;;;;;;;16.87;3.07;;;7.40;99.90;;;;;;5096677;28;20607;-78
2024/01/01 04:13:45;;;;;;;15.93;2.60;;;7.50;99.90;;;;;;5098739;28;20194;-77
2024/01/01 04:16:11;;;;;;;17.57;3.20;;;7.50;99.90;;;;;;5102498;28;20256;-78
2024/01/01 04:18:37;;;;;;;14.63;2.97;;;7.50;99.90;;;;;;5099100;28;20638;-78
2024/01/01 04:21:02;;;;;;;15.77;2.87;;;7.50;99.90;;;;;;5095969;28;20167;-76
2024/01/01 04:23:28;;;;;;;19.90;4.00;;;7.50;99.90;;;;;;5099842;28;20669;-77
2024/01/01 04:25:53;;;;;;;14.37;2.67;;;7.60;99.90;;;;;;5102667;28;20182;-77
2024/01/01 04:28:19;;;;;;;16.23;2.77;;;7.60;99.90;;;;;;5101945;28;20238;-78
2024/01/01 04:30:44;;;;;;;14.00;3.07;;;7.60;99.90;;;;;;5102480;28;20184;-78
2024/01/01 04:33:10;;;;;;;11.73;2.70;;;7.60;99.90;;;;;;5103411;28;20214;-77
2024/01/01 04:35:35;;;;;;;18.80;3.37;;;7.60;99.90;;;;;;5104506;28;20183;-77
2024/01/01 04:38:01;;;;;;;14.97;3.10;;;7.70;99.90;;;;;;5102853;28;20205;-78
2024/01/01 04:40:26;;;;;;;17.97;3.37;;;7.70;99.90;;;;;;5104232;28;20280;-78
2024/01/01 04:42:53;;;;;;;17.27;2.97;;;7.70;99.90;;;;;;5101341;28;20250;-78
2024/01/01 04:45:19;;;;;;;15.90;2.87;;;7.60;99.90;;;;;;5102326;28;20170;-77
2024/01/01 04:47:44;;;;;;;15.43;3.00;;;7.60;99.90;;;;;;5102446;28;20253;-77
2024/01/01 04:50:10;;;;;;;12.93;2.50;;;7.70;99.90;;;;;;5101544;28;20178;-77
2024/01/01 04:52:35;;;;;;;16.63;3.57;;;7.70;99.90;;;;;;5102753;28;20632;-77
2024/01/01 04:55:01;;;;;;;20.17;3.50;;;7.70;99.90;;;;;;5101834;28;20193;-77
2024/01/01 04:57:26;;;;;;;17.93;3.40;;;7.70;99.90;;;;;;5101876;28;20614;-77
2024/01/01 04:59:52;;;;;;;13.70;3.17;;;7.70;99.90;;;;;;5102062;28;20566;-77
2024/01/01 05:02:17;;;;;;;13.00;2.87;;;7.70;99.90;;;;;;5101607;28;20189;-77
2024/01/01 05:04:43;;;;;;;19.47;2.83;;;7.80;99.90;;;;;;5101590;28;20167;-77
2024/01/01 05:07:08;;;;;;;9.17;2.20;;;7.80;99.90;;;;;;5102769;28;20559;-77
2024/01/01 05:09:34;;;;;;;14.50;2.70;;;7.90;99.90;;;;;;5101156;28;20670;-78
2024/01/01 05:11:59;;;;;;;20.27;2.87;;;7.90;99.90;;;;;;5102152;28;20265;-78
2024/01/01 05:14:25;;;;;;;14.20;2.80;;;7.90;99.90;;;;;;5101485;28;20292;-78
2024/01/01 05:16:51;;;;;;;12.50;3.00;;;8.00;99.90;;;;;;5103139;28;20193;-77
2024/01/01 05:19:16;;;;;;;15.93;2.63;;;8.00;99.90;;;;;;5101996;28;20202;-77
2024/01/01 05:21:42;;;;;;;14.03;2.73;;;8.00;99.90;;;;;;5101024;28;20545;-77
2024/01/01 05:24:08;;;;;;;14.77;2.73;;;8.00;99.90;;;;;;5101655;28;20202;-78
2024/01/01 05:26:33;;;;;;;8.87;2.40;;;7.90;99.90;;;;;;5100573;28;20178;-76
2024/01/01 05:28:59;;;;;;;14.97;3.03;;;8.00;99.90;;;;;;5100799;28;20178;-77
2024/01/01 05:31:24;;;;;;;18.60;2.70;;;8.00;99.90;;;;;;5101296;28;20235;-78
2024/01/01 05:33:50;;;;;;;15.37;2.83;;;7.90;99.90;;;;;;5102163;28;20707;-77
2024/01/01 05:36:15;;;;;;;11.80;2.60;;;8.00;99.90;;;;;;5099324;28;20175;-78
2024/01/01 05:38:41;;;;;;;10.73;2.43;;;8.00;99.90;;;;;;5100307;28;20188;-77
2024/01/01 05:41:10;;;;;;;16.13;2.87;;;8.00;99.90;;;;;;5098518;28;20197;-78
2024/01/01 05:43:35;;;;;;;15.83;3.83;;;8.10;99.90;;;;;;5100796;28;20191;-78
2024/01/01 05:46:01;;;;;;;16.47;3.07;;;8.10;99.90;;;;;;5096146;28;20237;-77
2024/01/01 05:48:26;;;;;;;13.00;2.87;;;8.10;99.90;;;;;;5081253;28;20174;-77
2024/01/01 05:50:52;;;;;;;14.23;2.63;;;8.10;99.90;;;;;;5080022;28;20197;-77
2024/01/01 05:53:17;;;;;;;16.90;2.80;;;8.20;99.90;;;;;;5081080;28;20190;-78
2024/01/01 05:55:43;;;;;;;16.33;2.80;;;8.10;99.90;;;;;;5079023;28;20179;-77
2024/01/01 05:58:09;;;;;;;11.50;2.93;;;8.10;99.90;;;;;;5077929;28;20182;-78
2024/01/01 06:00:36;;;;;;;10.43;2.50;;;8.10;99.90;;;;;;5093590;28;20210;-78
2024/01/01 06:03:05;;;;;;;21.23;3.43;;;8.10;99.90;;;;;;5099009;28;20226;-77
2024/01/01 06:05:33;;;;;;;10.47;2.50;;;8.10;99.90;;;;;;5099695;28;20173;-77
2024/01/01 06:08:00;;;;;;;14.27;2.40;;;8.20;99.90;;;;;;5099569;28;20174;-76
2024/01/01 06:10:26;;;;;;;12.10;2.53;;;8.20;99.90;;;;;;5100294;28;20170;-78
2024/01/01 06:12:52;;;;;;;11.60;3.17;;;8.30;99.90;;;;;;5092989;28;20252;-78
2024/01/01 06:15:17;;;;;;;14.10;2.83;;;8.30;99.90;;;;;;5078556;28;20182;-77
2024/01/01 06:17:43;;;;;;;10.97;2.30;;;8.20;99.90;;;;;;5078406;28;20298;-77
2024/01/01 06:20:09;;;;;;;12.47;2.60;;;8.20;99.90;;;;;;5076837;28;20269;-77
2024/01/01 06:22:34;;;;;;;15.53;2.77;;;8.30;99.90;;;;;;5081046;28;20220;-78
2024/01/01 06:25:00;;;;;;;15.53;2.57;;;8.30;99.90;;;;;;5091479;28;20179;-78
2024/01/01 06:27:25;;;;;;;10.83;2.60;;;8.30;99.90;;;;;;5092129;28;20193;-77
2024/01/01 06:29:51;;;;;;;16.73;3.70;;;8.20;99.90;;;;;;5093013;28;20196;-77
2024/01/01 06:32:16;;;;;;;8.77;2.27;;;8.30;99.90;;;;;;5091526;28;20235;-77
2024/01/01 06:34:44;;;;;;;14.93;2.77;;;8.30;99.90;;;;;;5093562;28;20233;-77
2024/01/01 06:37:10;;;;;;;13.97;2.73;;;8.40;99.90;;;;;;5093227;28;20671;-78
2024/01/01 06:39:35;;;;;;;10.50;2.50;;;8.40;99.90;;;;;;5093762;28;20194;-78
2024/01/01 06:42:01;;;;;;;11.87;2.07;;;8.30;99.90;;;;;;5097233;28;20170;-77
2024/01/01 06:44:27;;;;;;;11.73;2.70;;;8.30;99.90;;;;;;5093611;28;20255;-78
2024/01/01 06:46:52;;;;;;;10.80;2.23;;;8.30;99.90;;;;;;5092774;28;20242;-77
2024/01/01 06:49:19;;;;;;;7.50;2.13;;;8.20;99.90;;;;;;5091341;28;20611;-77
2024/01/01 06:51:49;;;;;;;10.97;1.97;;;8.10;99.90;;;;;;5092136;28;20185;-76
2024/01/01 06:54:14;;;;;;;8.27;2.00;;;8.10;99.90;;;;;;5090772;28;20202;-77
2024/01/01 06:56:41;;;;;;;8.50;2.10;;;8.00;99.90;;;;;;5097231;28;20187;-77
2024/01/01 06:59:07;;;;;;;7.10;2.53;;;8.00;99.90;;;;;;5086774;28;20221;-77
2024/01/01 07:01:32;;;;;;;12.93;2.60;;;8.00;99.90;;;;;;5071814;28;20171;-77
2024/01/01 07:03:58;;;;;;;10.17;2.87;;;7.90;99.90;;;;;;5071792;28;20710;-77
2024/01/01 07:06:23;;;;;;;10.67;2.40;;;7.90;99.90;;;;;;5070609;28;20538;-77
2024/01/01 07:08:49;;;;;;;10.27;2.60;;;7.80;99.90;;;;;;5082063;28;20190;-76
2024/01/01 07:11:15;;;;;;;11.07;2.60;;;7.80;99.90;;;;;;5071991;28;20175;-76
2024/01/01 07:13:40;;;;;;;11.07;2.43;;;7.80;99.90;;;;;;5072262;28;20266;-77
2024/01/01 07:16:06;;;;;;;10.77;2.07;;;7.80;99.90;;;;;;5087383;28;20170;-77
2024/01/01 07:18:32;;;;;;;12.73;2.33;;;7.80;99.90;;;;;;5071973;28;20167;-78
2024/01/01 07:20:58;;;;;;;12.97;2.43;;;7.80;99.90;;;;;;5072326;28;20225;-77
2024/01/01 07:23:23;;;;;;;10.10;2.00;;;7.80;99.90;;;;;;5094876;28;20555;-77
2024/01/01 07:25:50;;;;;;;8.77;2.40;;;7.70;99.90;;;;;;5111089;28;20200;-77
2024/01/01 07:28:16;;;;;;;9.27;2.47;;;7.80;99.90;;;;;;5112451;28;20181;-77
2024/01/01 07:30:41;;;;;;;10.43;2.23;;;7.70;99.90;;;;;;5113116;28;20165;-77
2024/01/01 07:33:07;;;;;;;6.67;2.20;;;7.80;99.90;;;;;;5112237;28;20350;-77
2024/01/01 07:35:32;;;;;;;8.13;2.27;;;7.70;99.90;;;;;;5085732;28;20213;-78
2024/01/01 07:38:00;;;;;;;7.33;2.23;;;7.70;99.90;;;;;;5095787;28;20182;-78
2024/01/01 07:40:25;;;;;;;9.57;2.37;;;7.70;99.90;;;;;;5096044;28;20280;-77
2024/01/01 07:42:51;;;;;;;8.77;2.40;;;7.70;99.90;;;;;;5094901;28;20297;-77
2024/01/01 07:45:16;;;;;;;6.43;2.00;;;7.70;99.90;;;;;;5095730;28;20182;-78
2024/01/01 07:47:42;;;;;;;7.77;2.03;;;7.70;99.90;;;;;;5094128;28;20196;-77
2024/01/01 07:50:08;;;;;;;14.37;2.80;;;7.70;99.90;;;;;;5095917;28;20312;-77
2024/01/01 07:52:34;;;;;;;10.43;2.23;;;7.70;99.90;;;;;;5094151;28;20171;-78
2024/01/01 07:54:59;;;;;;;5.13;1.83;;;7.70;99.90;;;;;;5095830;28;20257;-76
2024/01/01 07:57:25;;;;;;;6.77;2.20;;;7.80;99.90;;;;;;5096043;28;20202;-77
2024/01/01 07:59:55;;;;;;;8.50;1.97;;;7.80;99.90;;;;;;5095661;28;20638;-76
2024/01/01 08:02:20;;;;;;;7.37;1.83;;;7.80;99.90;;;;;;5095648;28;20245;-78
2024/01/01 08:04:46;;;;;;;9.73;2.13;;;7.80;99.90;;;;;;5087171;28;20293;-77
2024/01/01 08:07:12;;;;;;;13.57;2.27;;;7.70;99.90;;;;;;5075055;28;20204;-77
2024/01/01 08:09:37;;;;;;;7.20;1.80;;;7.80;99.90;;;;;;5073635;28;20179;-77
2024/01/01 08:12:04;;;;;;;6.93;1.57;;;7.80;99.90;;;;;;5073814;28;20252;-77
2024/01/01 08:14:29;;;;;;;10.47;1.70;;;7.80;99.90;;;;;;5074961;28;20187;-77
2024/01/01 08:16:55;;;;;;;9.23;1.87;;;7.90;99.90;;;;;;5074971;28;20186;-77
2024/01/01 08:19:21;;;;;;;8.03;1.80;;;7.80;99.90;;;;;;5073826;28;20206;-78
2024/01/01 08:21:47;;;;;;;7.00;2.07;;;7.80;99.90;;;;;;5074934;28;20179;-78
2024/01/01 08:24:12;;;;;;;9.27;1.83;;;7.80;99.90;;;;;;5075056;28;20592;-77
2024/01/01 08:26:38;;;;;;;4.60;1.47;;;7.70;99.90;;;;;;5073726;28;20237;-77
2024/01/01 08:29:03;;;;;;;10.40;2.30;;;7.70;99.90;;;;;;5074257;28;20198;-78
2024/01/01 08:31:29;;;;;;;8.23;1.80;;;7.80;99.90;;;;;;5073716;28;20674;-78
2024/01/01 08:33:55;;;;;;;6.23;1.63;;;7.80;99.90;;;;;;5073453;28;20225;-77
2024/01/01 08:36:21;;;;;;;4.17;1.33;;;7.80;99.90;;;;;;5083511;28;20186;-77
2024/01/01 08:38:47;;;;;;;5.80;1.50;;;7.70;99.90;;;;;;5095175;28;20490;-77
2024/01/01 08:41:12;;;;;;;6.27;1.80;;;7.70;99.90;;;;;;5095311;28;20167;-77
2024/01/01 08:43:38;;;;;;;10.27;1.80;;;7.70;99.90;;;;;;5095013;28;20220;-77
2024/01/01 08:46:05;;;;;;;7.63;1.70;;;7.70;99.90;;;;;;5092425;28;20216;-78
2024/01/01 08:48:31;;;;;;;6.23;1.60;;;7.70;99.90;;;;;;5095466;28;20162;-77
2024/01/01 08:50:57;;;;;;;7.97;1.60;;;7.70;99.90;;;;;;5096053;28;20212;-77
2024/01/01 08:53:23;;;;;;;6.60;1.77;;;7.70;99.90;;;;;;5096548;28;20198;-78
2024/01/01 08:55:48;;;;;;;4.17;1.27;;;7.60;99.90;;;;;;5096705;28;20283;-77
2024/01/01 08:58:14;;;;;;;8.10;1.60;;;7.70;99.90;;;;;;5094674;28;20245;-78
2024/01/01 09:00:39;;;;;;;7.07;1.50;;;7.70;99.90;;;;;;5092580;28;20202;-78
2024/01/01 09:03:05;;;;;;;6.47;1.67;;;7.70;99.90;;;;;;5095330;28;20194;-78
2024/01/01 09:05:30;;;;;;;8.13;2.10;;;7.60;99.90;;;;;;5094652;28;20220;-78
2024/01/01 09:07:56;;;;;;;8.17;1.50;;;7.60;99.90;;;;;;5094919;28;20604;-77
2024/01/01 09:10:22;;;;;;;8.43;1.53;;;7.60;99.90;;;;;;5095011;28;20174;-78
2024/01/01 09:12:47;;;;;;;7.60;1.60;;;7.60;99.90;;;;;;5094652;28;20357;-77
2024/01/01 09:15:16;;;;;;;8.07;1.50;;;7.70;99.90;;;;;;5094338;28;20181;-77
2024/01/01 09:17:43;;;;;;;6.87;1.87;;;7.70;99.90;;;;;;5092849;28;20174;-77
2024/01/01 09:20:10;;;;;;;5.07;1.33;;;7.70;99.90;;;;;;5094073;28;20252;-77
2024/01/01 09:22:35;;;;;;;10.07;1.60;;;7.70;99.90;;;;;;5092573;28;20617;-77
2024/01/01 09:25:01;;;;;;;7.03;2.00;;;7.70;99.90;;;;;;5093876;28;20279;-77
2024/01/01 09:27:26;;;;;;;8.03;1.70;;;7.70;99.90;;;;;;5093951;28;20178;-77
2024/01/01 09:29:52;;;;;;;6.77;2.00;;;7.60;99.90;;;;;;5094008;28;20231;-78
2024/01/01 09:32:17;;;;;;;5.17;1.70;;;7.70;99.90;;;;;;5092374;28;20336;-76
2024/01/01 09:34:43;;;;;;;4.80;1.43;;;7.70;99.90;;;;;;5093916;28;20163;-77
2024/01/01 09:37:08;;;;;;;4.93;1.50;;;7.70;99.90;;;;;;5093619;28;20194;-77
2024/01/01 09:39:35;;;;;;;8.73;2.23;;;7.70;99.90;;;;;;5093622;28;20190;-77
2024/01/01 09:42:03;;;;;;;9.47;2.03;;;7.80;99.90;;;;;;5092107;28;20259;-78
2024/01/01 09:44:29;;;;;;;9.63;2.37;;;7.80;99.90;;;;;;5092317;28;20208;-78
2024/01/01 09:46:55;;;;;;;7.60;1.90;;;7.80;99.90;;;;;;5094236;28;20660;-77
2024/01/01 09:49:21;;;;;;;7.43;1.63;;;7.80;99.90;;;;;;5092677;28;20178;-77
2024/01/01 09:51:47;;;;;;;5.27;1.97;;;7.80;99.90;;;;;;5092649;28;20174;-77
2024/01/01 09:54:13;;;;;;;8.00;1.83;;;7.90;99.90;;;;;;5092635;28;20199;-77
2024/01/01 09:56:38;;;;;;;8.10;2.17;;;7.90;99.90;;;;;;5093365;28;20177;-76
2024/01/01 09:59:04;;;;;;;9.07;1.47;;;7.90;99.90;;;;;;5092897;28;20221;-75
2024/01/01 10:01:33;;;;;;;8.97;1.60;;;8.00;99.90;;;;;;5093274;28;20192;-76
2024/01/01 10:04:03;;;;;;;9.97;1.77;;;8.00;99.90;;;;;;5092692;28;20189;-77
2024/01/01 10:06:34;;;;;;;6.03;1.97;;;8.00;99.90;;;;;;5091479;28;20174;-77
2024/01/01 10:09:09;;;;;;;8.20;1.97;;;8.00;99.90;;;;;;5091341;28;20182;-77
2024/01/01 10:11:40;;;;;;;7.00;1.77;;;8.00;99.90;;;;;;5091288;28;20180;-77
2024/01/01 10:14:07;;;;;;;7.37;1.60;;;8.10;99.90;;;;;;5092547;28;20190;-77
2024/01/01 10:16:33;;;;;;;6.30;2.00;;;8.00;99.90;;;;;;5092477;28;20300;-77
2024/01/01 10:19:00;;;;;;;6.17;1.70;;;8.10;99.90;;;;;;5092289;28;20596;-77
2024/01/01 10:21:38;;;;;;;5.97;1.77;;;8.10;99.90;;;;;;5091080;28;20196;-77
2024/01/01 10:24:30;;;;;;;6.43;1.57;;;8.10;99.90;;;;;;5090225;28;20334;-78
2024/01/01 10:26:56;;;;;;;7.43;1.50;;;8.10;99.90;;;;;;5089623;28;20185;-77
2024/01/01 10:29:25;;;;;;;9.83;1.93;;;8.10;99.90;;;;;;5090950;28;20193;-77
2024/01/01 10:31:51;;;;;;;6.23;1.73;;;8.10;99.90;;;;;;5092258;28;20212;-77
2024/01/01 10:34:18;;;;;;;8.07;1.90;;;8.20;99.90;;;;;;5090858;28;20276;-77
2024/01/01 10:36:44;;;;;;;7.73;2.20;;;8.20;99.90;;;;;;5092099;28;20654;-77
2024/01/01 10:39:10;;;;;;;7.80;1.50;;;8.20;99.90;;;;;;5090795;28;20660;-77
2024/01/01 10:41:38;;;;;;;7.43;1.67;;;8.20;99.90;;;;;;5088154;28;20181;-77
2024/01/01 10:44:06;;;;;;;9.57;1.70;;;8.20;99.90;;;;;;5091929;28;20209;-77
2024/01/01 10:46:34;;;;;;;11.03;1.80;;;8.30;99.90;;;;;;5090624;28;20649;-77
2024/01/01 10:49:01;;;;;;;9.70;1.83;;;8.30;99.90;;;;;;5091931;28;20165;-77
2024/01/01 10:51:52;;;;;;;7.43;1.70;;;8.20;99.90;;;;;;5091917;28;20171;-77
2024/01/01 10:54:59;;;;;;;6.57;1.50;;;8.20;99.90;;;;;;5090577;28;20186;-77
2024/01/01 10:57:38;;;;;;;6.67;1.77;;;8.30;99.90;;;;;;5050931;28;20343;-76
2024/01/01 11:00:10;;;;;;;10.10;1.83;;;8.20;99.90;;;;;;5091628;28;20599;-76
2024/01/01 11:02:37;;;;;;;8.23;1.67;;;8.20;99.90;;;;;;5091849;28;20169;-77
2024/01/01 11:05:11;;;;;;;7.20;1.70;;;8.20;99.90;;;;;;5092641;28;20173;-77
2024/01/01 11:07:52;;;;;;;12.40;2.00;;;8.20;99.90;;;;;;5093875;28;20194;-77
2024/01/01 11:10:49;;;;;;;7.23;1.77;;;8.30;99.90;;;;;;5094778;28;20649;-77
2024/01/01 11:13:38;;;;;;;9.43;1.97;;;8.20;99.90;;;;;;5094263;28;20692;-77
2024/01/01 11:16:04;;;;;;;3.47;1.20;;;8.30;99.90;;;;;;5088291;28;20186;-80
2024/01/01 11:18:34;;;;;;;6.20;1.57;;;8.30;99.90;;;;;;5097278;28;20641;-79
2024/01/01 11:21:06;;;;;;;6.83;1.67;;;8.30;99.90;;;;;;5096422;28;20194;-77
2024/01/01 11:23:42;;;;;;;8.33;2.10;;;8.40;99.90;;;;;;5094701;28;20284;-76
2024/01/01 11:26:22;;;;;;;10.40;2.07;;;8.40;99.90;;;;;;5094015;28;20487;-77
2024/01/01 11:28:56;;;;;;;12.27;2.70;;;8.40;99.90;;;;;;5096664;28;20522;-77
2024/01/01 11:31:23;;;;;;;10.20;1.80;;;8.60;99.90;;;;;;5096100;28;20535;-77
2024/01/01 11:34:08;;;;;;;10.00;2.10;;;8.60;99.90;;;;;;5095612;28;20198;-77
2024/01/01 11:36:35;;;;;;;10.07;1.77;;;8.50;99.90;;;;;;5096075;28;20245;-76
2024/01/01 11:39:02;;;;;;;11.37;2.23;;;8.60;99.90;;;;;;5095355;28;20241;-77
2024/01/01 11:41:29;;;;;;;8.30;1.90;;;8.60;99.90;;;;;;5093834;28;20206;-77
2024/01/01 11:44:07;;;;;;;7.53;2.00;;;8.60;99.90;;;;;;5095897;28;20613;-77
2024/01/01 11:46:32;;;;;;;12.83;3.00;;;8.60;99.90;;;;;;5094977;28;20196;-77
2024/01/01 11:49:02;;;;;;;7.97;2.00;;;8.60;99.90;;;;;;5094355;28;20175;-78
2024/01/01 11:51:30;;;;;;;9.50;1.80;;;8.70;99.90;;;;;;5096537;28;20242;-79
2024/01/01 11:54:10;;;;;;;10.70;2.17;;;8.70;99.90;;;;;;5097943;28;20190;-78
2024/01/01 11:56:39;;;;;;;8.40;2.00;;;8.70;99.90;;;;;;5098317;28;20181;-78
2024/01/01 11:59:08;;;;;;;9.27;1.87;;;8.70;99.90;;;;;;5095921;28;20289;-78
2024/01/01 12:01:38;;;;;;;8.53;1.97;;;8.70;99.90;;;;;;5077252;28;20696;-76
2024/01/01 12:04:06;;;;;;;9.00;2.57;;;8.80;99.90;;;;;;5075542;28;20198;-76
2024/01/01 12:06:33;;;;;;;7.83;1.60;;;8.80;99.90;;;;;;5073828;28;20179;-76
2024/01/01 12:09:06;;;;;;;7.53;2.03;;;8.80;99.90;;;;;;5075227;28;20606;-76
2024/01/01 12:11:33;;;;;;;8.87;2.10;;;8.70;99.90;;;;;;5074989;28;20159;-76
2024/01/01 12:13:58;;;;;;;8.10;1.67;;;8.70;99.90;;;;;;5074720;28;20619;-76
2024/01/01 12:16:24;;;;;;;9.60;1.77;;;8.70;99.90;;;;;;5088381;28;20198;-77
2024/01/01 12:19:01;;;;;;;9.07;1.93;;;8.70;99.90;;;;;;5095200;28;20170;-76
2024/01/01 12:21:44;;;;;;;10.30;2.10;;;8.70;99.90;;;;;;5092164;28;20181;-76
2024/01/01 12:24:14;;;;;;;10.97;2.60;;;8.70;99.90;;;;;;5093583;28;20205;-76
2024/01/01 12:26:43;;;;;;;7.63;2.17;;;8.80;99.90;;;;;;5093548;28;20229;-76
2024/01/01 12:29:14;;;;;;;9.07;2.40;;;8.80;99.90;;;;;;5093589;28;20181;-75
2024/01/01 12:31:43;;;;;;;10.07;1.93;;;8.80;99.90;;;;;;5093204;28;20273;-76
2024/01/01 12:34:13;;;;;;;16.40;2.53;;;8.80;99.90;;;;;;5094480;28;20254;-76
2024/01/01 12:36:40;;;;;;;15.97;3.03;;;8.80;99.90;;;;;;5094939;28;20186;-76
2024/01/01 12:39:06;;;;;;;9.83;2.33;;;8.80;99.90;;;;;;5095198;28;20194;-77
2024/01/01 12:41:32;;;;;;;10.00;2.60;;;8.80;99.90;;;;;;5094623;28;20657;-79
2024/01/01 12:44:00;;;;;;;14.43;2.60;;;8.80;99.90;;;;;;5094331;28;20201;-77
2024/01/01 12:46:27;;;;;;;8.47;2.20;;;8.80;99.90;;;;;;5094961;28;20178;-77
2024/01/01 12:48:52;;;;;;;11.67;2.53;;;8.90;99.90;;;;;;5094399;28;20315;-77